Time;durP1;ratioP1;P1;durP2;ratioP2;P2;SDS_P1;SDS_P2;PMS_P1;PMS_P2;Temp;Humidity;BMP_temperature;BMP_pressure;BME280_temperature;BME280_humidity;BME280_pressure;Samples;Min_cycle;Max_cycle;Signal;HPM_P1;HPM_P2
2024/02/25 00:01:18;;;;;;;34.83;16.95;;;;;;;3.97;100.00;98715.16;5028388;28;20049;-63
2024/02/25 00:03:46;;;;;;;33.75;16.67;;;;;;;3.99;100.00;98714.84;5014045;28;20411;-62
2024/02/25 00:06:14;;;;;;;31.63;15.40;;;;;;;3.99;100.00;98712.91;5028010;28;20578;-62
2024/02/25 00:08:41;;;;;;;24.88;14.60;;;;;;;3.96;100.00;98716.34;5028682;28;20049;-62
2024/02/25 00:11:10;;;;;;;25.67;13.57;;;;;;;3.96;100.00;98710.88;5028545;28;20056;-62
2024/02/25 00:13:38;;;;;;;23.98;10.85;;;;;;;3.95;100.00;98709.25;5028191;28;20045;-63
2024/02/25 00:16:05;;;;;;;32.47;14.00;;;;;;;3.98;100.00;98708.56;5029121;28;20115;-63
2024/02/25 00:18:32;;;;;;;52.75;18.27;;;;;;;3.99;100.00;98703.88;5021709;28;20475;-63
2024/02/25 00:21:00;;;;;;;38.60;17.52;;;;;;;4.00;100.00;98695.31;5028171;28;20049;-62
2024/02/25 00:23:28;;;;;;;44.08;19.92;;;;;;;4.02;100.00;98706.72;5028218;28;20048;-61
2024/02/25 00:25:56;;;;;;;26.90;15.00;;;;;;;4.03;100.00;98699.28;5028631;28;20037;-62
2024/02/25 00:28:24;;;;;;;30.10;15.40;;;;;;;4.03;100.00;98699.28;5029004;28;20057;-62
2024/02/25 00:30:51;;;;;;;19.23;11.20;;;;;;;4.01;100.00;98693.38;5023170;28;20061;-62
2024/02/25 00:33:18;;;;;;;21.50;11.05;;;;;;;4.02;100.00;98693.03;5018868;28;20399;-62
2024/02/25 00:35:46;;;;;;;22.42;12.00;;;;;;;4.03;100.00;98691.06;5027853;28;20049;-62
2024/02/25 00:38:16;;;;;;;20.38;10.38;;;;;;;4.02;100.00;98701.25;5028677;28;20046;-62
2024/02/25 00:40:43;;;;;;;23.92;11.70;;;;;;;4.00;100.00;98699.97;5027681;28;20045;-61
2024/02/25 00:43:26;;;;;;;23.60;11.48;;;;;;;4.00;100.00;98691.78;5015698;28;20046;-61
2024/02/25 00:45:54;;;;;;;24.90;11.88;;;;;;;3.99;100.00;98693.75;5028453;28;20053;-62
2024/02/25 00:48:21;;;;;;;24.80;12.07;;;;;;;3.98;100.00;98703.09;5028140;28;20050;-62
2024/02/25 00:50:49;;;;;;;22.45;12.85;;;;;;;3.97;100.00;98690.53;5028743;28;20052;-61
2024/02/25 00:53:16;;;;;;;21.13;11.95;;;;;;;3.96;100.00;98691.69;5027723;28;20049;-62
2024/02/25 00:55:44;;;;;;;22.50;11.68;;;;;;;3.96;100.00;98696.38;5028151;28;20498;-61
2024/02/25 00:58:11;;;;;;;19.63;10.00;;;;;;;3.95;100.00;98690.09;5014746;28;20393;-63
2024/02/25 01:00:39;;;;;;;25.48;11.82;;;;;;;3.92;100.00;98681.81;5027556;28;20064;-62
2024/02/25 01:03:06;;;;;;;19.45;10.40;;;;;;;3.89;100.00;98683.28;5023915;28;20053;-63
2024/02/25 01:05:34;;;;;;;21.05;9.82;;;;;;;3.86;100.00;98673.06;5028052;28;20065;-62
2024/02/25 01:08:03;;;;;;;17.58;9.48;;;;;;;3.82;100.00;98672.16;5027806;28;20050;-62
2024/02/25 01:10:31;;;;;;;16.38;10.30;;;;;;;3.82;100.00;98674.91;5027513;28;20049;-61
2024/02/25 01:12:58;;;;;;;15.52;8.57;;;;;;;3.82;100.00;98661.22;5026202;28;20052;-62
2024/02/25 01:15:26;;;;;;;17.45;7.65;;;;;;;3.83;100.00;98660.06;5027435;28;20065;-63
2024/02/25 01:17:54;;;;;;;15.00;8.50;;;;;;;3.84;100.00;98658.91;5026694;28;20581;-63
2024/02/25 01:20:21;;;;;;;13.45;8.68;;;;;;;3.84;100.00;98658.91;5027078;28;20037;-62
2024/02/25 01:22:49;;;;;;;13.63;7.68;;;;;;;3.85;100.00;98668.72;5027611;28;20470;-62
2024/02/25 01:25:16;;;;;;;10.55;6.65;;;;;;;3.83;100.00;98651.88;5027624;28;20047;-62
2024/02/25 01:27:44;;;;;;;12.95;7.15;;;;;;;3.83;100.00;98654.59;5027607;28;20411;-61
2024/02/25 01:30:14;;;;;;;15.48;5.95;;;;;;;3.84;100.00;98663.63;5013660;28;20410;-62
2024/02/25 01:32:41;;;;;;;9.45;5.40;;;;;;;3.84;100.00;98658.91;5030082;28;20064;-62
2024/02/25 01:35:12;;;;;;;14.63;5.32;;;;;;;3.85;100.00;98657.78;5030632;28;20068;-62
2024/02/25 01:37:40;;;;;;;8.20;4.93;;;;;;;3.86;100.00;98656.63;5029858;28;20056;-62
2024/02/25 01:40:09;;;;;;;10.02;5.70;;;;;;;3.86;100.00;98659.38;5030942;28;20045;-62
2024/02/25 01:42:37;;;;;;;10.85;5.55;;;;;;;3.87;100.00;98641.00;5030660;28;20064;-61
2024/02/25 01:45:05;;;;;;;7.63;5.60;;;;;;;3.89;100.00;98655.91;5030490;28;20045;-61
2024/02/25 01:47:32;;;;;;;13.45;5.93;;;;;;;3.90;100.00;98659.44;5030459;28;20492;-61
2024/02/25 01:50:00;;;;;;;13.15;6.18;;;;;;;3.91;100.00;98650.91;5029560;28;20038;-61
2024/02/25 01:52:28;;;;;;;15.75;7.55;;;;;;;3.92;100.00;98647.00;5029990;28;20474;-61
2024/02/25 01:54:56;;;;;;;19.45;9.70;;;;;;;3.92;100.00;98647.00;5029036;28;20049;-61
2024/02/25 01:57:24;;;;;;;24.58;9.77;;;;;;;3.95;100.00;98650.97;5030220;28;20049;-61
2024/02/25 01:59:52;;;;;;;44.90;18.75;;;;;;;3.95;100.00;98640.81;5029829;28;20080;-61
2024/02/25 02:02:19;;;;;;;41.58;16.70;;;;;;;3.97;100.00;98638.53;5028763;28;20060;-61
2024/02/25 02:04:47;;;;;;;38.25;16.73;;;;;;;3.97;100.00;98641.25;5028314;28;20044;-62
2024/02/25 02:07:14;;;;;;;25.92;12.60;;;;;;;3.96;100.00;98636.94;5024184;28;20419;-61
2024/02/25 02:09:42;;;;;;;13.70;7.50;;;;;;;3.96;100.00;98631.47;5029034;28;20395;-61
2024/02/25 02:12:09;;;;;;;10.15;5.75;;;;;;;3.97;100.00;98635.00;5029809;28;20052;-61
2024/02/25 02:14:36;;;;;;;12.27;5.95;;;;;;;3.96;100.00;98639.69;5028681;28;20084;-61
2024/02/25 02:17:05;;;;;;;9.73;4.55;;;;;;;3.97;100.00;98624.84;5029052;28;20503;-61
2024/02/25 02:19:32;;;;;;;11.52;5.50;;;;;;;3.97;100.00;98613.13;5029691;28;20041;-61
2024/02/25 02:22:00;;;;;;;9.50;5.22;;;;;;;3.98;100.00;98615.47;5028926;28;20050;-61
2024/02/25 02:24:28;;;;;;;9.73;4.53;;;;;;;3.98;100.00;98614.69;5029317;28;20050;-61
2024/02/25 02:26:56;;;;;;;11.63;5.13;;;;;;;3.96;100.00;98606.84;5028052;28;20411;-61
2024/02/25 02:29:25;;;;;;;6.28;4.03;;;;;;;4.00;100.00;98598.69;5029291;28;20050;-62
2024/02/25 02:31:56;;;;;;;8.20;3.42;;;;;;;3.98;100.00;98593.59;5025794;28;20481;-61
2024/02/25 02:34:24;;;;;;;10.95;4.65;;;;;;;3.99;100.00;98597.13;5029964;28;20049;-61
2024/02/25 02:36:52;;;;;;;7.57;3.90;;;;;;;3.98;100.00;98588.09;5029551;28;20044;-61
2024/02/25 02:39:19;;;;;;;8.10;4.40;;;;;;;3.97;100.00;98583.78;5028755;28;20054;-61
2024/02/25 02:41:48;;;;;;;5.90;3.72;;;;;;;3.97;100.00;98578.28;5026920;28;20442;-61
2024/02/25 02:44:16;;;;;;;13.50;4.63;;;;;;;3.96;100.00;98567.72;5023515;28;20053;-61
2024/02/25 02:46:43;;;;;;;10.05;4.68;;;;;;;3.96;100.00;98576.72;5029039;28;20046;-61
2024/02/25 02:49:10;;;;;;;10.00;5.32;;;;;;;3.97;100.00;98566.56;5029705;28;20041;-61
2024/02/25 02:51:38;;;;;;;11.95;5.20;;;;;;;3.96;100.00;98563.03;5028522;28;20081;-61
2024/02/25 02:54:05;;;;;;;12.18;5.80;;;;;;;3.95;100.00;98555.97;5029252;28;20044;-61
2024/02/25 02:56:33;;;;;;;8.93;4.60;;;;;;;3.96;100.00;98552.09;5027198;28;20042;-61
2024/02/25 02:59:00;;;;;;;11.85;5.57;;;;;;;3.96;100.00;98543.88;5028704;28;20033;-61
2024/02/25 03:01:28;;;;;;;11.60;5.40;;;;;;;3.97;100.00;98550.16;4944828;22;20060;-61
2024/02/25 03:03:55;;;;;;;9.25;4.65;;;;;;;3.95;100.00;98555.97;5069660;28;20509;-61
2024/02/25 03:06:22;;;;;;;10.77;5.25;;;;;;;3.95;100.00;98550.50;5068713;28;20045;-61
2024/02/25 03:08:50;;;;;;;11.15;6.00;;;;;;;3.94;100.00;98548.91;5074233;28;20040;-60
2024/02/25 03:11:18;;;;;;;10.00;5.53;;;;;;;3.93;100.00;98543.78;5083042;28;20408;-60
2024/02/25 03:13:46;;;;;;;9.68;5.70;;;;;;;3.92;100.00;98544.94;5087909;28;20050;-61
2024/02/25 03:16:13;;;;;;;7.72;4.60;;;;;;;3.92;100.00;98545.72;5087861;28;20043;-60
2024/02/25 03:18:40;;;;;;;13.80;5.15;;;;;;;3.94;100.00;98537.97;5077024;28;20048;-61
2024/02/25 03:21:08;;;;;;;8.82;4.75;;;;;;;3.97;100.00;98537.22;5071900;28;20055;-60
2024/02/25 03:23:36;;;;;;;10.43;4.80;;;;;;;3.97;100.00;98537.22;5075558;28;20053;-60
2024/02/25 03:26:04;;;;;;;12.02;5.43;;;;;;;4.00;100.00;98531.06;5070120;28;20062;-60
2024/02/25 03:28:32;;;;;;;10.77;5.47;;;;;;;4.01;100.00;98526.38;5069368;28;20387;-60
2024/02/25 03:30:59;;;;;;;8.40;5.00;;;;;;;4.02;100.00;98531.50;5081142;28;20044;-62
2024/02/25 03:33:26;;;;;;;12.13;6.03;;;;;;;4.04;100.00;98531.94;5071213;28;20047;-61
2024/02/25 03:35:54;;;;;;;13.48;4.97;;;;;;;4.04;100.00;98540.16;5069786;28;20055;-60
2024/02/25 03:38:21;;;;;;;10.43;4.53;;;;;;;4.03;100.00;98544.03;5070274;28;20084;-60
2024/02/25 03:40:49;;;;;;;9.10;4.75;;;;;;;4.03;100.00;98551.44;5077817;28;20048;-59
2024/02/25 03:43:17;;;;;;;11.73;5.07;;;;;;;4.03;100.00;98565.94;5076785;28;20043;-59
2024/02/25 03:45:45;;;;;;;7.20;4.13;;;;;;;4.02;100.00;98558.88;5064829;28;20071;-58
2024/02/25 03:48:14;;;;;;;8.15;4.65;;;;;;;4.02;100.00;98555.34;5050855;28;20044;-60
2024/02/25 03:50:42;;;;;;;10.15;4.85;;;;;;;4.01;100.00;98548.28;5079152;28;20511;-58
2024/02/25 03:53:10;;;;;;;9.00;4.75;;;;;;;4.00;100.00;98547.47;5068517;28;20036;-58
2024/02/25 03:55:37;;;;;;;10.52;4.53;;;;;;;3.99;100.00;98545.91;5050462;28;20449;-59
2024/02/25 03:58:04;;;;;;;10.93;4.95;;;;;;;3.98;100.00;98548.97;5068864;28;20044;-59
2024/02/25 04:00:32;;;;;;;8.90;4.97;;;;;;;3.96;100.00;98545.81;5073345;28;20055;-59
2024/02/25 04:02:59;;;;;;;9.30;4.53;;;;;;;3.95;100.00;98539.53;5046288;28;20049;-59
2024/02/25 04:05:27;;;;;;;10.52;5.38;;;;;;;3.95;100.00;98539.53;5068400;28;20044;-60
2024/02/25 04:07:55;;;;;;;8.55;5.13;;;;;;;3.96;100.00;98538.41;5069383;28;20060;-59
2024/02/25 04:10:25;;;;;;;12.45;5.50;;;;;;;3.98;100.00;98527.06;5068858;28;20063;-59
2024/02/25 04:12:52;;;;;;;17.50;5.90;;;;;;;3.99;100.00;98539.63;5080364;28;20056;-59
2024/02/25 04:15:19;;;;;;;13.25;5.97;;;;;;;4.00;100.00;98541.19;5069915;28;20045;-59
2024/02/25 04:17:48;;;;;;;13.40;5.78;;;;;;;4.00;100.00;98535.72;5062348;28;20071;-60
2024/02/25 04:20:16;;;;;;;14.73;6.45;;;;;;;4.01;100.00;98532.66;5068967;28;20056;-59
2024/02/25 04:22:44;;;;;;;9.43;5.45;;;;;;;4.02;100.00;98536.19;5068048;28;20052;-60
2024/02/25 04:25:11;;;;;;;9.25;5.18;;;;;;;4.03;100.00;98535.00;5079282;28;20047;-59
2024/02/25 04:27:40;;;;;;;12.95;5.97;;;;;;;4.01;100.00;98527.19;5050807;28;20049;-60
2024/02/25 04:30:07;;;;;;;12.23;5.35;;;;;;;4.02;100.00;98523.28;5083635;28;20063;-59
2024/02/25 04:32:39;;;;;;;9.15;5.03;;;;;;;4.02;100.00;98517.81;5063051;28;20040;-60
2024/02/25 04:35:08;;;;;;;10.27;4.28;;;;;;;4.04;100.00;98525.66;5088272;28;20054;-60
2024/02/25 04:37:35;;;;;;;10.82;3.88;;;;;;;4.07;100.00;98524.97;5062420;28;20645;-60
2024/02/25 04:40:03;;;;;;;9.32;2.92;;;;;;;4.09;100.00;98523.44;5052309;28;20499;-57
2024/02/25 04:42:30;;;;;;;5.70;2.65;;;;;;;4.12;100.00;98511.78;5066010;28;20044;-58
2024/02/25 04:44:57;;;;;;;8.82;3.13;;;;;;;4.17;100.00;98508.78;5067517;28;20045;-59
2024/02/25 04:47:25;;;;;;;9.80;1.95;;;;;;;4.23;100.00;98506.56;5067137;28;20059;-60
2024/02/25 04:49:52;;;;;;;6.05;1.70;;;;;;;4.29;100.00;98505.91;5067340;28;20047;-59
2024/02/25 04:52:21;;;;;;;6.10;2.88;;;;;;;4.37;100.00;98506.84;5055979;28;20032;-59
2024/02/25 04:54:48;;;;;;;9.00;2.03;;;;;;;4.43;100.00;98499.94;5067262;28;20580;-59
2024/02/25 04:57:16;;;;;;;4.95;1.60;;;;;;;4.47;100.00;98500.81;5072941;28;20051;-58
2024/02/25 04:59:43;;;;;;;3.80;1.27;;;;;;;4.53;100.00;98496.63;5067557;28;20517;-60
2024/02/25 05:02:10;;;;;;;3.22;1.60;;;;;;;4.56;100.00;98493.16;5065590;28;20044;-58
2024/02/25 05:04:40;;;;;;;4.90;2.08;;;;;;;4.59;100.00;98491.66;5066995;28;20064;-60
2024/02/25 05:07:09;;;;;;;5.63;1.70;;;;;;;4.61;100.00;98484.66;5074110;28;20621;-59
2024/02/25 05:09:36;;;;;;;8.70;2.35;;;;;;;4.65;100.00;98476.53;5078605;28;20519;-59
2024/02/25 05:12:04;;;;;;;8.20;1.92;;;;;;;4.66;100.00;98478.13;5071153;28;20056;-59
2024/02/25 05:14:32;;;;;;;10.80;1.63;;;;;;;4.68;100.00;98478.53;5052507;28;20044;-59
2024/02/25 05:17:00;;;;;;;9.50;1.73;;;;;;;4.69;100.00;98474.63;5069643;28;20524;-59
2024/02/25 05:19:28;;;;;;;7.43;2.15;;;;;;;4.71;100.00;98475.84;5070871;28;20067;-59
2024/02/25 05:21:56;;;;;;;14.50;1.88;;;;;;;4.74;100.00;98471.59;5052385;28;20115;-60
2024/02/25 05:24:23;;;;;;;12.32;2.42;;;;;;;4.77;100.00;98473.63;5071168;28;20040;-59
2024/02/25 05:26:50;;;;;;;11.13;2.85;;;;;;;4.83;100.00;98480.41;5071251;28;20528;-60
2024/02/25 05:29:18;;;;;;;14.95;3.15;;;;;;;4.86;100.00;98475.00;5069738;28;20048;-59
2024/02/25 05:31:45;;;;;;;13.30;2.53;;;;;;;4.90;100.00;98475.03;5069445;28;20049;-59
2024/02/25 05:34:12;;;;;;;17.35;2.70;;;;;;;4.93;100.00;98479.81;5058370;28;20071;-58
2024/02/25 05:36:40;;;;;;;6.15;2.05;;;;;;;4.95;100.00;98469.25;5070118;28;20402;-60
2024/02/25 05:39:08;;;;;;;19.58;2.92;;;;;;;5.00;100.00;98474.47;5070697;28;20041;-59
2024/02/25 05:41:36;;;;;;;11.98;3.17;;;;;;;5.05;100.00;98470.63;5057724;28;20815;-60
2024/02/25 05:44:03;;;;;;;19.63;3.65;;;;;;;5.11;100.00;98472.69;5070495;28;20059;-60
2024/02/25 05:46:31;;;;;;;14.57;2.45;;;;;;;5.15;100.00;98479.06;5074816;28;20413;-59
2024/02/25 05:48:58;;;;;;;23.75;4.35;;;;;;;5.17;100.00;98474.00;5070739;28;20056;-59
2024/02/25 05:51:26;;;;;;;11.90;2.88;;;;;;;5.21;100.00;98480.34;5070349;28;20223;-59
2024/02/25 05:53:53;;;;;;;21.95;3.88;;;;;;;5.21;100.00;98474.88;5071133;28;20057;-59
2024/02/25 05:56:21;;;;;;;10.43;2.63;;;;;;;5.25;100.00;98470.22;5070313;28;20493;-59
2024/02/25 05:58:49;;;;;;;27.58;4.50;;;;;;;5.27;100.00;98462.41;5070650;28;20060;-59
2024/02/25 06:01:16;;;;;;;13.43;3.55;;;;;;;5.31;100.00;98468.75;5069244;28;20056;-59
2024/02/25 06:03:45;;;;;;;19.17;4.18;;;;;;;5.33;100.00;98476.63;5070867;28;20044;-59
2024/02/25 06:06:13;;;;;;;18.90;4.88;;;;;;;5.33;100.00;98468.38;5070666;28;20049;-59
2024/02/25 06:08:42;;;;;;;9.25;2.10;;;;;;;5.34;100.00;98479.00;5070867;28;20101;-60
2024/02/25 06:11:09;;;;;;;18.05;2.70;;;;;;;5.38;100.00;98479.84;5069860;28;20045;-59
2024/02/25 06:13:36;;;;;;;8.52;3.15;;;;;;;5.38;100.00;98477.09;5070111;28;20053;-59
2024/02/25 06:16:04;;;;;;;7.45;1.20;;;;;;;5.35;100.00;98479.78;5069987;28;20402;-59
2024/02/25 06:18:33;;;;;;;5.18;1.25;;;;;;;5.32;100.00;98484.06;5068371;28;20075;-60
2024/02/25 06:21:00;;;;;;;13.25;1.77;;;;;;;5.28;100.00;98474.97;5069419;28;20113;-60
2024/02/25 06:23:27;;;;;;;10.02;1.30;;;;;;;5.25;100.00;98472.16;5069383;28;20057;-59
2024/02/25 06:25:57;;;;;;;2.88;1.10;;;;;;;5.21;100.00;98471.31;5069931;28;20044;-59
2024/02/25 06:28:26;;;;;;;3.30;0.88;;;;;;;5.17;100.00;98475.94;5069325;28;20055;-61
2024/02/25 06:30:54;;;;;;;1.88;0.80;;;;;;;5.13;100.00;98486.84;5069209;28;20040;-60
2024/02/25 06:33:22;;;;;;;4.35;0.77;;;;;;;5.10;100.00;98473.88;5069066;28;20041;-61
2024/02/25 06:35:53;;;;;;;0.70;0.60;;;;;;;5.08;100.00;98481.69;5069111;28;20049;-61
2024/02/25 06:38:20;;;;;;;3.42;0.63;;;;;;;5.04;100.00;98489.03;5069092;28;20041;-62
2024/02/25 06:40:47;;;;;;;4.03;0.57;;;;;;;5.03;100.00;98486.66;5069473;28;20497;-61
2024/02/25 06:43:15;;;;;;;7.00;1.00;;;;;;;5.01;100.00;98487.00;5069902;28;20409;-60
2024/02/25 06:45:42;;;;;;;2.55;0.90;;;;;;;4.99;100.00;98485.78;5069468;28;20064;-61
2024/02/25 06:48:09;;;;;;;2.25;1.05;;;;;;;4.98;100.00;98484.22;5051758;28;20040;-61
2024/02/25 06:50:37;;;;;;;7.97;1.75;;;;;;;4.99;100.00;98496.75;5069474;28;20045;-61
2024/02/25 06:53:04;;;;;;;5.25;1.17;;;;;;;4.98;100.00;98487.72;5069845;28;20059;-61
2024/02/25 06:55:32;;;;;;;8.55;1.38;;;;;;;5.00;100.00;98495.63;5051487;28;20565;-61
2024/02/25 06:58:00;;;;;;;5.00;2.35;;;;;;;5.03;100.00;98497.63;5066865;28;20151;-60
2024/02/25 07:00:27;;;;;;;7.25;2.35;;;;;;;5.06;100.00;98503.16;5041378;28;20044;-60
2024/02/25 07:02:55;;;;;;;5.82;1.63;;;;;;;5.10;100.00;98504.03;5069641;28;20044;-60
2024/02/25 07:05:22;;;;;;;6.10;1.92;;;;;;;5.13;100.00;98503.31;5059901;28;20060;-60
2024/02/25 07:07:50;;;;;;;12.00;2.42;;;;;;;5.17;100.00;98517.06;5074482;28;20585;-60
2024/02/25 07:10:18;;;;;;;8.88;1.80;;;;;;;5.18;100.00;98516.72;5065625;28;20049;-60
2024/02/25 07:12:46;;;;;;;9.07;1.08;;;;;;;5.18;100.00;98522.22;5079150;28;20059;-60
2024/02/25 07:15:13;;;;;;;5.55;1.00;;;;;;;5.18;100.00;98524.97;5069055;28;20429;-60
2024/02/25 07:17:46;;;;;;;8.55;1.30;;;;;;;5.17;100.00;98519.81;5068205;28;20048;-60
2024/02/25 07:20:14;;;;;;;12.00;1.38;;;;;;;5.18;100.00;98529.66;5069413;28;20044;-61
2024/02/25 07:22:42;;;;;;;7.05;1.42;;;;;;;5.15;100.00;98520.19;5068596;28;20056;-61
2024/02/25 07:25:09;;;;;;;7.85;1.50;;;;;;;5.11;100.00;98524.81;5069140;28;20044;-61
2024/02/25 07:27:37;;;;;;;5.75;1.10;;;;;;;5.10;100.00;98538.88;5072435;28;20047;-60
2024/02/25 07:30:05;;;;;;;4.22;1.40;;;;;;;5.08;100.00;98535.72;5068452;28;20502;-62
2024/02/25 07:32:32;;;;;;;8.18;2.03;;;;;;;5.06;100.00;98541.56;5066968;28;20067;-61
2024/02/25 07:34:59;;;;;;;6.63;2.47;;;;;;;5.10;100.00;98549.88;5068232;28;20528;-62
2024/02/25 07:37:27;;;;;;;7.60;1.65;;;;;;;5.09;100.00;98549.06;5050270;28;20053;-62
2024/02/25 07:39:55;;;;;;;5.25;1.58;;;;;;;5.09;100.00;98549.06;5068767;28;20060;-60
2024/02/25 07:42:22;;;;;;;8.30;1.90;;;;;;;5.09;100.00;98557.28;5071024;28;20409;-60
2024/02/25 07:44:50;;;;;;;4.93;2.42;;;;;;;5.09;100.00;98554.53;5069410;28;20059;-59
2024/02/25 07:47:17;;;;;;;9.60;1.58;;;;;;;5.10;100.00;98549.88;5068138;28;20525;-60
2024/02/25 07:49:44;;;;;;;4.88;1.45;;;;;;;5.05;100.00;98542.72;5067827;28;20048;-61
2024/02/25 07:52:12;;;;;;;5.22;1.40;;;;;;;5.04;100.00;98546.63;5077775;28;20048;-61
2024/02/25 07:54:39;;;;;;;3.58;1.60;;;;;;;5.03;100.00;98547.75;5072384;28;20037;-61
2024/02/25 07:57:08;;;;;;;9.80;2.03;;;;;;;5.01;100.00;98558.31;5068457;28;20406;-61
2024/02/25 07:59:36;;;;;;;7.63;1.52;;;;;;;5.01;100.00;98550.06;5064139;28;20041;-61
2024/02/25 08:02:03;;;;;;;6.68;3.05;;;;;;;5.03;100.00;98547.75;5073772;28;20055;-61
2024/02/25 08:04:35;;;;;;;9.77;2.45;;;;;;;5.07;100.00;98551.38;5064516;28;20064;-61
2024/02/25 08:07:03;;;;;;;9.30;1.88;;;;;;;5.12;100.00;98562.06;5067345;28;20044;-61
2024/02/25 08:09:31;;;;;;;14.75;3.08;;;;;;;5.17;100.00;98561.75;5067884;28;20063;-60
2024/02/25 08:11:58;;;;;;;20.98;4.05;;;;;;;5.21;100.00;98564.59;5068391;28;20795;-60
2024/02/25 08:14:26;;;;;;;14.82;3.05;;;;;;;5.24;100.00;98556.41;5067277;28;20044;-60
2024/02/25 08:16:53;;;;;;;18.52;4.93;;;;;;;5.29;100.00;98558.88;5067447;28;20060;-61
2024/02/25 08:19:20;;;;;;;16.05;3.67;;;;;;;5.34;100.00;98563.25;5067470;28;20036;-60
2024/02/25 08:21:48;;;;;;;14.10;2.65;;;;;;;5.36;100.00;98563.69;5065870;28;20052;-60
2024/02/25 08:24:17;;;;;;;11.75;2.80;;;;;;;5.39;100.00;98563.75;5067204;28;20044;-60
2024/02/25 08:26:45;;;;;;;13.73;3.35;;;;;;;5.41;100.00;98564.19;5067164;28;20060;-59
2024/02/25 08:29:13;;;;;;;25.55;4.00;;;;;;;5.44;100.00;98560.72;5066393;28;20526;-60
2024/02/25 08:31:42;;;;;;;17.02;3.25;;;;;;;5.47;100.00;98570.16;5066780;28;20052;-60
2024/02/25 08:34:10;;;;;;;9.35;2.97;;;;;;;5.48;100.00;98578.03;5064575;28;20060;-60
2024/02/25 08:36:37;;;;;;;12.85;3.15;;;;;;;5.49;100.00;98579.63;5066897;28;20044;-60
2024/02/25 08:39:05;;;;;;;18.55;3.03;;;;;;;5.50;100.00;98583.97;5066766;28;20048;-59
2024/02/25 08:41:32;;;;;;;7.82;2.60;;;;;;;5.51;100.00;98585.53;5065665;28;20048;-60
2024/02/25 08:44:00;;;;;;;13.23;2.30;;;;;;;5.52;100.00;98583.59;5067046;28;20473;-60
2024/02/25 08:46:27;;;;;;;11.30;2.30;;;;;;;5.53;100.00;98591.44;5067374;28;20040;-60
2024/02/25 08:48:55;;;;;;;10.95;2.60;;;;;;;5.54;100.00;98592.25;5067800;28;20053;-60
2024/02/25 08:51:23;;;;;;;10.02;3.20;;;;;;;5.56;100.00;98598.16;5053882;28;20060;-61
2024/02/25 08:53:50;;;;;;;14.57;2.70;;;;;;;5.57;100.00;98601.69;5066627;28;20044;-60
2024/02/25 08:56:18;;;;;;;9.63;2.05;;;;;;;5.58;100.00;98601.34;5066439;28;20040;-61
2024/02/25 08:58:45;;;;;;;11.65;2.17;;;;;;;5.60;100.00;98609.22;5065281;28;20048;-60
2024/02/25 09:01:12;;;;;;;7.25;2.58;;;;;;;5.59;100.00;98593.91;5066117;28;20056;-60
2024/02/25 09:03:40;;;;;;;9.25;2.28;;;;;;;5.59;100.00;98600.19;5067564;28;20041;-60
2024/02/25 09:06:17;;;;;;;19.45;2.58;;;;;;;5.60;100.00;98607.28;5074802;28;20079;-60
2024/02/25 09:08:45;;;;;;;11.63;2.45;;;;;;;5.59;100.00;98604.91;5070606;28;20056;-60
2024/02/25 09:11:12;;;;;;;7.40;2.10;;;;;;;5.60;100.00;98606.47;5067166;28;20044;-60
2024/02/25 09:13:40;;;;;;;13.10;2.45;;;;;;;5.60;100.00;98606.47;5071778;28;20063;-60
2024/02/25 09:16:07;;;;;;;4.88;1.73;;;;;;;5.59;100.00;98597.44;5066725;28;20037;-60
2024/02/25 09:18:35;;;;;;;5.97;2.00;;;;;;;5.60;100.00;98614.69;5048552;28;20064;-60
2024/02/25 09:21:02;;;;;;;15.95;6.75;;;;;;;5.60;100.00;98609.22;5056402;28;20045;-60
2024/02/25 09:23:30;;;;;;;15.07;3.80;;;;;;;5.61;100.00;98617.09;5066327;28;20040;-60
2024/02/25 09:25:57;;;;;;;9.10;3.80;;;;;;;5.63;100.00;98627.69;5067551;28;20052;-61
2024/02/25 09:28:26;;;;;;;9.00;2.30;;;;;;;5.62;100.00;98621.41;5067309;28;20799;-60
2024/02/25 09:30:54;;;;;;;11.43;2.55;;;;;;;5.64;100.00;98629.31;5066219;28;20045;-61
2024/02/25 09:33:23;;;;;;;10.00;2.20;;;;;;;5.66;100.00;98637.97;5049017;28;20571;-62
2024/02/25 09:35:50;;;;;;;8.60;1.95;;;;;;;5.69;100.00;98639.97;5066567;28;20498;-62
2024/02/25 09:38:18;;;;;;;6.22;1.65;;;;;;;5.72;100.00;98631.03;5060740;28;20379;-58
2024/02/25 09:40:48;;;;;;;6.60;1.40;;;;;;;5.76;100.00;98640.09;5060526;28;20414;-60
2024/02/25 09:43:16;;;;;;;9.40;1.75;;;;;;;5.80;100.00;98632.75;5066750;28;20053;-60
2024/02/25 09:45:47;;;;;;;8.63;1.40;;;;;;;5.83;100.00;98637.47;5056376;28;20940;-59
2024/02/25 09:48:15;;;;;;;12.40;3.13;;;;;;;5.89;100.00;98636.06;5065991;28;20056;-61
2024/02/25 09:50:45;;;;;;;9.25;2.85;;;;;;;5.93;100.00;98642.41;5064912;28;20075;-59
2024/02/25 09:53:15;;;;;;;4.00;1.57;;;;;;;5.95;100.00;98649.13;5068196;28;20041;-60
2024/02/25 09:55:45;;;;;;;8.45;2.08;;;;;;;5.99;100.00;98651.94;5069423;28;20048;-60
2024/02/25 09:58:14;;;;;;;2.70;1.30;;;;;;;6.03;100.00;98641.81;5069807;28;20048;-61
2024/02/25 10:00:41;;;;;;;5.68;1.75;;;;;;;6.06;100.00;98654.81;5067862;28;20397;-61
2024/02/25 10:03:11;;;;;;;5.10;1.08;;;;;;;6.14;100.00;98654.56;5068561;28;20410;-60
2024/02/25 10:05:42;;;;;;;10.27;1.25;;;;;;;6.17;100.00;98647.53;5069210;28;20052;-60
2024/02/25 10:08:11;;;;;;;6.93;1.23;;;;;;;6.18;100.00;98646.38;5069691;28;20040;-60
2024/02/25 10:10:41;;;;;;;8.23;1.40;;;;;;;6.17;100.00;98644.78;5069142;28;20049;-60
2024/02/25 10:13:09;;;;;;;3.00;1.33;;;;;;;6.19;100.00;98656.22;5060356;28;20043;-60
2024/02/25 10:15:40;;;;;;;11.18;2.08;;;;;;;6.21;100.00;98648.41;5068988;28;20402;-60
2024/02/25 10:18:14;;;;;;;5.32;0.95;;;;;;;6.23;100.00;98651.56;5066560;28;20409;-61
2024/02/25 10:20:41;;;;;;;2.20;1.25;;;;;;;6.23;100.00;98651.56;5068423;28;20048;-60
2024/02/25 10:23:10;;;;;;;12.90;3.13;;;;;;;6.23;100.00;98662.56;5068754;28;20071;-61
2024/02/25 10:25:42;;;;;;;29.67;14.48;;;;;;;6.26;100.00;98653.59;5068972;28;20045;-60
2024/02/25 10:28:14;;;;;;;35.50;15.02;;;;;;;6.30;100.00;98659.91;5067973;28;20523;-60
2024/02/25 10:31:01;;;;;;;7.68;1.83;;;;;;;6.33;100.00;98666.66;5047685;28;20052;-58
2024/02/25 10:33:28;;;;;;;2.88;0.73;;;;;;;6.34;100.00;98662.72;5062555;28;20393;-60
2024/02/25 10:36:05;;;;;;;6.97;0.85;;;;;;;6.37;100.00;98664.75;5067827;28;20056;-59
2024/02/25 10:38:37;;;;;;;2.50;0.70;;;;;;;6.40;100.00;98655.78;5068583;28;20052;-58
2024/02/25 10:41:06;;;;;;;6.43;1.10;;;;;;;6.41;100.00;98662.84;5068846;28;20051;-59
2024/02/25 10:43:35;;;;;;;5.97;1.27;;;;;;;6.41;100.00;98671.09;5068333;28;20047;-60
2024/02/25 10:46:30;;;;;;;7.32;1.45;;;;;;;6.37;100.00;98662.81;5067978;28;20052;-60
2024/02/25 10:49:02;;;;;;;5.28;1.10;;;;;;;6.37;100.00;98673.78;5063655;28;20052;-60
2024/02/25 10:51:30;;;;;;;5.72;0.75;;;;;;;6.37;100.00;98684.78;5068325;28;20056;-58
2024/02/25 10:53:57;;;;;;;5.38;1.48;;;;;;;6.39;100.00;98676.16;5068466;28;20473;-59
2024/02/25 10:56:25;;;;;;;6.93;2.47;;;;;;;6.40;100.00;98684.06;5067762;28;20041;-58
2024/02/25 10:58:52;;;;;;;6.13;1.25;;;;;;;6.41;100.00;98677.38;5067785;28;20041;-59
2024/02/25 11:01:22;;;;;;;11.07;1.73;;;;;;;6.46;100.00;98681.78;5067661;28;20063;-59
2024/02/25 11:03:49;;;;;;;3.58;0.70;;;;;;;6.48;100.00;98691.25;5049815;28;20036;-59
2024/02/25 11:06:29;;;;;;;3.55;1.20;;;;;;;6.51;100.00;98696.00;5067063;28;20372;-60
2024/02/25 11:09:12;;;;;;;8.88;1.38;;;;;;;6.55;100.00;98696.88;5067517;28;20045;-60
2024/02/25 11:11:42;;;;;;;5.43;1.35;;;;;;;6.60;100.00;98704.78;5064051;28;20540;-60
2024/02/25 11:14:35;;;;;;;7.63;1.33;;;;;;;6.60;100.00;98704.78;5067763;28;20080;-60
2024/02/25 11:17:03;;;;;;;6.05;0.88;;;;;;;6.61;100.00;98711.91;5067319;28;20402;-60
2024/02/25 11:19:31;;;;;;;9.80;1.35;;;;;;;6.60;100.00;98713.03;5067556;28;20426;-60
2024/02/25 11:21:59;;;;;;;3.42;1.17;;;;;;;6.61;100.00;98719.34;5068107;28;20043;-60
2024/02/25 11:24:46;;;;;;;9.98;3.08;;;;;;;6.61;100.00;98716.59;5067670;28;20708;-58
2024/02/25 11:27:14;;;;;;;5.97;1.75;;;;;;;6.59;100.00;98722.44;5067561;28;20048;-59
2024/02/25 11:29:43;;;;;;;10.02;1.17;;;;;;;6.62;100.00;98718.16;5067808;28;20589;-59
2024/02/25 11:32:11;;;;;;;4.43;1.42;;;;;;;6.63;100.00;98717.81;5066882;28;20580;-60
2024/02/25 11:34:38;;;;;;;5.00;0.82;;;;;;;6.64;100.00;98719.41;5066806;28;20767;-58